Burlington, Oregon
Current Conditions -  °F | °C
As of 3:53 PM on Friday 24 Oct 2014 (Local Time) from KHIO Reporting Station
Light Rain Light Rain  
Wind Chill: 54°   Ceiling: 7500
Heat Index: 54°   Visibility: 6mi
Dew Point: 51°   Wind: 5mph
Humidity: 90%   Direction: 50°NE
Pressure: 29.86"   Gusts: NA
Location:  45.6308°N, 122.858°W
Report Text: KHIO 242253Z 05004KT 6SM -RA BR OVC075 12/11 A2986 RMK AO2 SLP109 P0004 T01220106
Loading
Personal Weather Stations






























Interactive Weather Map
Tropical Storm Tracking
New forecast layout! Learn more

10-Day Weather Forecast

Advertisements
Track Severe Weather on mobile